Language selection

Features

My Weather Profile Weather Topics  | 

Eastern Lake Superior: Past 24 Hour Conditions

 

Pukaskwa National Park

01:00 PM EST 05 December 2019
Disclaimer

This table is a summary of hourly weather conditions for the past 24 hours.
Please note that these observations might not always be representative of weather conditions over their associated marine area.

Date / Time
(EST)
Wind(knots) Conditions Visibility(km) Pressure(kPa) Air tempC) Relative humidity(%) Dew pointC) Wind Chill
05 December 2019
13:00 NNE 1 N/A N/A 101.6 -5 67 -10 -6
12:00 NE 4 N/A N/A 101.5 -6 71 -10 -9
11:00 NE 3 N/A N/A 101.6 -8 88 -10 -11
10:00 calm N/A N/A 101.6 -13 91 -14 *
9:00 calm N/A N/A 101.5 -14 90 -15 *
8:00 calm N/A N/A 101.5 -14 88 -16 *
7:00 ENE 2 N/A N/A 101.4 -12 93 -13 -15
6:00 NE 2 N/A N/A 101.3 -12 91 -13 -14
5:00 calm N/A N/A 101.2 -10 90 -11 *
4:00 calm N/A N/A 101.2 -10 90 -12 *
3:00 calm N/A N/A 101.1 -11 90 -12 *
2:00 SSE 2 N/A N/A 101.0 -12 92 -13 -14
1:00 NE 3 N/A N/A 100.9 -13 89 -14 -17
0:00 N 1 N/A N/A 100.9 -12 88 -14 -13
04 December 2019
23:00 NNE 2 N/A N/A 100.8 -11 84 -13 -12
22:00 N 3 N/A N/A 100.7 -9 79 -12 -12
21:00 N 4 N/A N/A 100.7 -9 78 -12 -13
20:00 NNW 2 N/A N/A 100.6 -8 76 -12 -10
19:00 N 2 N/A N/A 100.5 -7 72 -12 -9
18:00 N 4 N/A N/A 100.4 -7 70 -12 -11
17:00 N 4 N/A N/A 100.3 -6 73 -10 -10
16:00 NNW 3 N/A N/A 100.2 -6 68 -11 -9
15:00 NNW 4 N/A N/A 100.1 -5 72 -9 -8
14:00 NW 2 N/A N/A 99.9 -4 70 -9 -6
13:00 NW 3 N/A N/A 99.9 -4 71 -9 -6

Zoom-in to make a selection

Map of Great Lakes - Lake Superior marine weather areas Mid Superior - 45001 East Superior - 45004 West Superior - 45006 Slate Island - 45136 Lake Of the Woods - 45148 Kenora Airport Royal Island Armstrong Airport Caribou Island Marathon Airport Pukaskwa National Park Thunder Bay Airport Welcome Island Little Flatland Island Sault Ste. Marie Airport Wawa Airport
Legend:
buoy Buoy
land station Land Station

Great Lakes - Lake Superior Area

Another Region

What we are doing

Date modified: